createdAt,value
2022-08-11T00:00:29.936Z,431.7
2022-08-11T00:02:13.639Z,430.8
2022-08-11T00:03:57.336Z,431
2022-08-11T00:05:41.049Z,431.3
2022-08-11T00:07:24.749Z,432.2
2022-08-11T00:09:08.456Z,430.5
2022-08-11T00:10:52.159Z,428.9
2022-08-11T00:12:35.863Z,427.5
2022-08-11T00:14:19.552Z,426.6
2022-08-11T00:16:03.257Z,423.8
2022-08-11T00:17:46.967Z,424.3
2022-08-11T00:19:30.649Z,423.9
2022-08-11T00:21:14.373Z,422.4
2022-08-11T00:22:58.056Z,416.6
2022-08-11T00:24:41.770Z,418.4
2022-08-11T00:26:25.461Z,421.2
2022-08-11T00:28:09.166Z,421.9
2022-08-11T00:29:52.881Z,427.2
2022-08-11T00:31:36.567Z,430.3
2022-08-11T00:33:20.267Z,431.9
2022-08-11T00:35:03.994Z,432.9
2022-08-11T00:36:47.685Z,434.2
2022-08-11T00:38:31.376Z,431.4
2022-08-11T00:40:15.098Z,428.6
2022-08-11T00:41:58.773Z,425.7
2022-08-11T00:43:42.494Z,425.3
2022-08-11T00:45:26.181Z,427.5
2022-08-11T00:47:09.896Z,425.2
2022-08-11T00:48:53.564Z,423.3
2022-08-11T00:50:37.271Z,423.8
2022-08-11T00:52:20.984Z,426.4
2022-08-11T00:54:04.698Z,427.6
2022-08-11T00:55:48.378Z,429.6
2022-08-11T00:57:32.090Z,429.4
2022-08-11T00:59:15.798Z,428.5
2022-08-11T01:00:59.492Z,428.1
2022-08-11T01:02:43.199Z,430.1
2022-08-11T01:04:26.886Z,432.9
2022-08-11T01:06:10.607Z,432.7
2022-08-11T01:07:54.300Z,432.6
2022-08-11T01:09:38.019Z,431.1
2022-08-11T01:11:21.680Z,431.2
2022-08-11T01:13:05.405Z,429.9
2022-08-11T01:14:49.109Z,431
2022-08-11T01:16:32.814Z,431.3
2022-08-11T01:18:16.505Z,427.1
2022-08-11T01:20:00.217Z,425.6
2022-08-11T01:21:43.910Z,424.4
2022-08-11T01:23:27.618Z,428.7
2022-08-11T01:25:11.316Z,429.3
2022-08-11T01:26:54.994Z,429.4
2022-08-11T01:28:38.700Z,429.4
2022-08-11T01:30:22.412Z,427.4
2022-08-11T01:32:06.120Z,423.5
2022-08-11T01:33:49.818Z,420.2
2022-08-11T01:35:33.530Z,420.5
2022-08-11T01:37:17.230Z,422.8
2022-08-11T01:39:00.926Z,423
2022-08-11T01:40:44.631Z,425.3
2022-08-11T01:42:28.311Z,422.6
2022-08-11T01:44:12.034Z,422.5
2022-08-11T01:45:55.740Z,421.4
2022-08-11T01:47:39.426Z,421.5
2022-08-11T01:49:23.125Z,422.2
2022-08-11T01:51:06.845Z,424.3
2022-08-11T01:52:50.544Z,424.5
2022-08-11T01:54:34.246Z,424.3
2022-08-11T01:56:17.970Z,423.9
2022-08-11T01:58:01.618Z,423.9
2022-08-11T01:59:45.350Z,424.9
2022-08-11T02:01:29.047Z,427.1
2022-08-11T02:03:12.748Z,426.9
2022-08-11T02:04:56.444Z,427.6
2022-08-11T02:06:40.141Z,424.9
2022-08-11T02:08:23.842Z,424.1
2022-08-11T02:10:07.547Z,422.3
2022-08-11T02:11:51.247Z,419.9
2022-08-11T02:13:34.955Z,418.2
2022-08-11T02:15:18.651Z,418.7
2022-08-11T02:17:02.356Z,421
2022-08-11T02:18:46.063Z,420.9
2022-08-11T02:20:29.762Z,422.2
2022-08-11T02:22:13.463Z,423.9
2022-08-11T02:23:57.169Z,428.5
2022-08-11T02:25:40.866Z,431.4
2022-08-11T02:27:24.560Z,430.3
2022-08-11T02:29:08.272Z,433.6
2022-08-11T02:30:51.979Z,435.1
2022-08-11T02:32:35.696Z,435.8
2022-08-11T02:34:19.403Z,434.9
2022-08-11T02:36:03.086Z,434.5
2022-08-11T02:37:46.778Z,435.4
2022-08-11T02:39:30.477Z,433.1
2022-08-11T02:41:14.187Z,433.8
2022-08-11T02:42:57.879Z,433.8
2022-08-11T02:44:41.583Z,435
2022-08-11T02:46:25.289Z,435.4
2022-08-11T02:48:09.008Z,436.5
2022-08-11T02:49:52.699Z,437
2022-08-11T02:51:36.391Z,434.7
2022-08-11T02:53:20.086Z,435.6
2022-08-11T02:55:03.805Z,436
2022-08-11T02:56:47.489Z,433.5
2022-08-11T02:58:31.189Z,434.1
2022-08-11T03:00:14.887Z,433.6
2022-08-11T03:01:58.592Z,432.7
2022-08-11T03:03:42.315Z,432.3
2022-08-11T03:05:26.023Z,430.2
2022-08-11T03:07:09.711Z,430.9
2022-08-11T03:08:53.415Z,430.7
2022-08-11T03:10:37.112Z,429.2
2022-08-11T03:12:20.834Z,427.5
2022-08-11T03:14:04.523Z,430.2
2022-08-11T03:15:48.230Z,432.7
2022-08-11T03:17:31.927Z,433.2
2022-08-11T03:19:15.624Z,431
2022-08-11T03:20:59.332Z,430.4
2022-08-11T03:22:43.019Z,430.3
2022-08-11T03:24:26.731Z,431.6
2022-08-11T03:26:10.431Z,432
2022-08-11T03:27:54.138Z,431.1
2022-08-11T03:29:37.835Z,430.7
2022-08-11T03:31:21.542Z,431.4
2022-08-11T03:33:05.236Z,429.1
2022-08-11T03:34:48.943Z,427.6
2022-08-11T03:36:32.656Z,431.3
2022-08-11T03:38:16.348Z,431.5
2022-08-11T03:40:00.060Z,432
2022-08-11T03:41:43.775Z,428.8
2022-08-11T03:43:27.461Z,427.4
2022-08-11T03:45:11.165Z,426.5
2022-08-11T03:46:54.857Z,426
2022-08-11T03:48:38.600Z,422.9
2022-08-11T03:50:22.258Z,418.2
2022-08-11T03:52:05.987Z,415.7
2022-08-11T03:53:49.677Z,418.7
2022-08-11T03:55:33.367Z,421.1
2022-08-11T03:57:17.085Z,422.5
2022-08-11T03:59:00.784Z,422.9
2022-08-11T04:00:44.484Z,421.6
2022-08-11T04:02:28.171Z,422
2022-08-11T04:04:11.874Z,423.9
2022-08-11T04:05:55.606Z,421.8
2022-08-11T04:07:39.281Z,423
2022-08-11T04:09:22.969Z,424
2022-08-11T04:11:06.689Z,423.1
2022-08-11T04:12:50.388Z,424.8
2022-08-11T04:14:34.083Z,426.1
2022-08-11T04:16:17.796Z,424.5
2022-08-11T04:18:01.480Z,422.6
2022-08-11T04:19:45.193Z,423.7
2022-08-11T04:21:28.894Z,428
2022-08-11T04:23:12.606Z,425
2022-08-11T04:24:56.295Z,423.3
2022-08-11T04:26:39.993Z,422.1
2022-08-11T04:28:23.704Z,422.3
2022-08-11T04:30:07.401Z,421.3
2022-08-11T04:31:51.116Z,423.8
2022-08-11T04:33:34.808Z,428.3
2022-08-11T04:35:18.550Z,428.8
2022-08-11T04:37:02.219Z,429.9
2022-08-11T04:38:45.920Z,428.6
2022-08-11T04:40:29.610Z,426
2022-08-11T04:42:13.316Z,423.5
2022-08-11T04:43:57.019Z,423.5
2022-08-11T04:45:40.725Z,423.2
2022-08-11T04:47:24.419Z,422.5
2022-08-11T04:49:08.130Z,414.6
2022-08-11T04:50:51.825Z,421.6
2022-08-11T04:52:35.520Z,422.3
2022-08-11T04:54:19.233Z,427.3
2022-08-11T04:56:02.914Z,424.6
2022-08-11T04:57:46.631Z,426
2022-08-11T04:59:30.343Z,425.7
2022-08-11T05:01:14.044Z,426.9
2022-08-11T05:02:57.748Z,429.2
2022-08-11T05:04:41.430Z,425.3
2022-08-11T05:06:25.122Z,423.6
2022-08-11T05:08:08.828Z,420.3
2022-08-11T05:09:52.543Z,421.9
2022-08-11T05:11:36.245Z,420.8
2022-08-11T05:13:19.950Z,422.8
2022-08-11T05:15:03.663Z,422.6
2022-08-11T05:16:47.369Z,423.9
2022-08-11T05:18:31.073Z,425.1
2022-08-11T05:20:14.764Z,422.1
2022-08-11T05:21:58.479Z,424.2
2022-08-11T05:23:42.171Z,424.1
2022-08-11T05:25:25.869Z,424.2
2022-08-11T05:27:09.567Z,423.4
2022-08-11T05:28:53.272Z,424.2
2022-08-11T05:30:36.969Z,422.8
2022-08-11T05:32:20.686Z,421.3
2022-08-11T05:34:04.395Z,420.4
2022-08-11T05:35:48.094Z,419.6
2022-08-11T05:37:31.788Z,421.1
2022-08-11T05:39:15.487Z,421.2
2022-08-11T05:40:59.195Z,421.7
2022-08-11T05:42:42.902Z,423.3
2022-08-11T05:44:26.602Z,425
2022-08-11T05:46:10.288Z,430.8
2022-08-11T05:47:54.010Z,433
2022-08-11T05:49:37.709Z,434.9
2022-08-11T05:51:21.419Z,434.7
2022-08-11T05:53:05.124Z,433.5
2022-08-11T05:54:48.836Z,434.5
2022-08-11T05:56:32.551Z,433.3
2022-08-11T05:58:16.205Z,433.3
2022-08-11T05:59:59.938Z,435.5
2022-08-11T06:01:43.620Z,435.9
2022-08-11T06:03:27.340Z,435.1
2022-08-11T06:05:11.034Z,436.3
2022-08-11T06:06:54.732Z,433.8
2022-08-11T06:08:38.424Z,434.8
2022-08-11T06:10:22.126Z,434
2022-08-11T06:12:05.845Z,433.1
2022-08-11T06:13:49.538Z,435.9
2022-08-11T06:15:33.259Z,437.3
2022-08-11T06:17:16.955Z,435.9
2022-08-11T06:19:00.653Z,436.9
2022-08-11T06:20:44.341Z,437.1
2022-08-11T06:22:28.064Z,433.7
2022-08-11T06:24:11.756Z,434.7
2022-08-11T06:25:55.468Z,432
2022-08-11T06:27:39.164Z,426.8
2022-08-11T06:29:22.861Z,426.4
2022-08-11T06:31:06.582Z,427.4
2022-08-11T06:32:50.272Z,427.6
2022-08-11T06:34:33.977Z,428.8
2022-08-11T06:36:17.653Z,428
2022-08-11T06:38:01.372Z,425.4
2022-08-11T06:39:45.068Z,427.6
2022-08-11T06:41:28.774Z,428.6
2022-08-11T06:43:12.473Z,427.1
2022-08-11T06:44:56.183Z,425.6
2022-08-11T06:46:39.870Z,426.2
2022-08-11T06:48:23.571Z,426.9
2022-08-11T06:50:07.268Z,426
2022-08-11T06:51:51.000Z,427.9
2022-08-11T06:53:34.699Z,428.6
2022-08-11T06:55:18.394Z,427.3
2022-08-11T06:57:02.085Z,425.5
2022-08-11T06:58:45.792Z,424.9
2022-08-11T07:00:29.485Z,425.6
2022-08-11T07:02:13.198Z,424.8
2022-08-11T07:03:56.907Z,424.3
2022-08-11T07:05:40.599Z,427.9
2022-08-11T07:07:24.304Z,432.2
2022-08-11T07:09:08.034Z,432.5
2022-08-11T07:10:51.715Z,429.1
2022-08-11T07:12:35.409Z,427.4
2022-08-11T07:14:19.106Z,426.8
2022-08-11T07:16:02.810Z,425.2
2022-08-11T07:17:46.509Z,423.3
2022-08-11T07:19:30.209Z,421
2022-08-11T07:21:13.892Z,422
2022-08-11T07:22:57.614Z,424.2
2022-08-11T07:24:41.300Z,424.6
2022-08-11T07:26:24.999Z,423.8
2022-08-11T07:28:08.685Z,426.7
2022-08-11T07:29:52.408Z,430.4
2022-08-11T07:31:36.113Z,433.6
2022-08-11T07:33:19.808Z,432.8
2022-08-11T07:35:03.519Z,435.3
2022-08-11T07:38:30.915Z,431.6
2022-08-11T07:40:14.635Z,431.5
2022-08-11T07:41:58.331Z,433.3
2022-08-11T07:43:42.040Z,434.5
2022-08-11T07:45:25.736Z,436.3
2022-08-11T07:47:09.439Z,439.6
2022-08-11T07:48:53.145Z,440.1
2022-08-11T07:50:36.837Z,442.9
2022-08-11T07:52:20.559Z,446.2
2022-08-11T07:54:04.253Z,445.7
2022-08-11T07:55:47.961Z,446.3
2022-08-11T07:57:31.663Z,449.3
2022-08-11T07:59:15.410Z,449.3
2022-08-11T08:00:59.071Z,449.2
2022-08-11T08:02:42.759Z,450.5
2022-08-11T08:04:26.489Z,451
2022-08-11T08:06:10.190Z,448
2022-08-11T08:07:53.875Z,443.9
2022-08-11T08:09:37.575Z,442.7
2022-08-11T08:11:21.282Z,438.9
2022-08-11T08:13:05.008Z,440.9
2022-08-11T08:14:48.701Z,442.1
2022-08-11T08:16:32.381Z,444.7
2022-08-11T08:18:16.098Z,445.1
2022-08-11T08:19:59.775Z,444.1
2022-08-11T08:21:43.504Z,445.9
2022-08-11T08:23:27.213Z,443.7
2022-08-11T08:25:10.897Z,439.9
2022-08-11T08:26:54.610Z,441.5
2022-08-11T08:28:38.310Z,438.6
2022-08-11T08:30:22.002Z,435.7
2022-08-11T08:32:05.718Z,435.5
2022-08-11T08:33:49.420Z,433.2
2022-08-11T08:35:33.117Z,432.3
2022-08-11T08:37:16.827Z,436
2022-08-11T08:45:55.313Z,430.2
2022-08-11T08:47:39.019Z,430.5
2022-08-11T08:49:22.705Z,429.2
2022-08-11T08:51:07.968Z,427.9
2022-08-11T08:52:50.152Z,426.4
2022-08-11T08:54:33.826Z,430.2
2022-08-11T08:56:17.531Z,432
2022-08-11T08:58:01.224Z,431.7
2022-08-11T08:59:44.915Z,429.1
2022-08-11T09:01:28.629Z,427.8
2022-08-11T09:03:12.306Z,426.4
2022-08-11T09:04:56.028Z,423.9
2022-08-11T09:06:39.730Z,424.2
2022-08-11T09:08:23.425Z,422.4
2022-08-11T09:10:07.124Z,423.6
2022-08-11T09:11:50.817Z,424.6
2022-08-11T09:13:34.527Z,426.6
2022-08-11T09:15:18.223Z,425.1
2022-08-11T09:17:01.908Z,423.1
2022-08-11T09:18:45.633Z,422.5
2022-08-11T09:20:29.336Z,423.7
2022-08-11T09:22:13.032Z,423.9
2022-08-11T09:23:56.724Z,425.9
2022-08-11T09:25:40.420Z,431.9
2022-08-11T09:27:24.128Z,432.7
2022-08-11T09:29:07.839Z,435.5
2022-08-11T09:30:51.538Z,439.2
2022-08-11T09:32:35.243Z,443.8
2022-08-11T09:34:18.947Z,449.5
2022-08-11T09:36:02.649Z,451.4
2022-08-11T09:37:46.319Z,453.4
2022-08-11T09:39:30.025Z,454.4
2022-08-11T09:41:13.732Z,456.6
2022-08-11T09:42:57.443Z,460.1
2022-08-11T09:44:41.121Z,462.8
2022-08-11T09:46:24.831Z,467.8
2022-08-11T09:48:08.539Z,474.2
2022-08-11T09:49:52.246Z,477.7
2022-08-11T09:51:35.925Z,480.3
2022-08-11T09:53:19.641Z,484.9
2022-08-11T09:55:03.346Z,489.2
2022-08-11T09:56:47.045Z,491.4
2022-08-11T09:58:30.736Z,495.9
2022-08-11T10:00:14.438Z,497.3
2022-08-11T10:01:58.157Z,500.9
2022-08-11T10:03:41.853Z,501.2
2022-08-11T10:05:25.544Z,505.8
2022-08-11T10:07:09.249Z,508.9
2022-08-11T10:08:52.959Z,512.3
2022-08-11T10:10:36.658Z,514.2
2022-08-11T10:12:20.378Z,519.4
2022-08-11T10:14:04.073Z,536.2
2022-08-11T10:15:47.770Z,552.9
2022-08-11T10:17:31.493Z,562.2
2022-08-11T10:19:15.169Z,565.2
2022-08-11T10:20:58.874Z,571.4
2022-08-11T10:22:42.587Z,569.6
2022-08-11T10:24:26.279Z,569
2022-08-11T10:26:09.993Z,573.7
2022-08-11T10:27:53.698Z,571.9
2022-08-11T10:29:37.395Z,564
2022-08-11T10:31:21.100Z,549.1
2022-08-11T10:33:04.813Z,541.7
2022-08-11T10:36:32.187Z,525.8
2022-08-11T10:38:15.904Z,509.6
2022-08-11T10:39:59.603Z,500.4
2022-08-11T10:41:43.288Z,490
2022-08-11T10:43:26.990Z,480.1
2022-08-11T10:45:10.706Z,472.6
2022-08-11T10:46:54.402Z,465.5
2022-08-11T10:48:38.088Z,459.4
2022-08-11T10:50:21.811Z,455
2022-08-11T10:52:05.506Z,451
2022-08-11T10:53:49.211Z,446.4
2022-08-11T10:55:32.895Z,443.1
2022-08-11T10:57:16.602Z,441
2022-08-11T10:59:00.301Z,438.9
2022-08-11T11:00:43.999Z,435.3
2022-08-11T11:02:27.707Z,433.3
2022-08-11T11:04:11.406Z,432.4
2022-08-11T11:05:55.097Z,430.2
2022-08-11T11:07:38.819Z,431.5
2022-08-11T11:09:22.500Z,434
2022-08-11T11:11:06.211Z,439.4
2022-08-11T11:12:49.906Z,441.6
2022-08-11T11:14:33.616Z,444.4
2022-08-11T11:16:17.316Z,447.5
2022-08-11T11:18:01.013Z,449.5
2022-08-11T11:19:44.719Z,448.9
2022-08-11T11:21:28.430Z,450.1
2022-08-11T11:23:12.115Z,450.3
2022-08-11T11:24:55.829Z,451.2
2022-08-11T11:26:39.536Z,452
2022-08-11T11:28:23.233Z,453.7
2022-08-11T11:30:06.933Z,454.1
2022-08-11T11:31:50.652Z,456.6
2022-08-11T11:33:34.350Z,457.2
2022-08-11T11:35:18.043Z,456.9
2022-08-11T11:37:01.746Z,455
2022-08-11T11:38:45.442Z,453.9
2022-08-11T11:40:29.157Z,455
2022-08-11T11:42:12.843Z,456.4
2022-08-11T11:43:56.561Z,458
2022-08-11T11:45:40.250Z,462
2022-08-11T11:47:24.014Z,470.3
2022-08-11T11:49:07.659Z,475.9
2022-08-11T11:50:51.356Z,480.9
2022-08-11T11:52:35.057Z,482.5
2022-08-11T11:54:18.749Z,482.8
2022-08-11T11:56:02.460Z,480.9
2022-08-11T11:57:46.180Z,479.8
2022-08-11T11:59:29.853Z,479.9
2022-08-11T12:01:13.559Z,480.9
2022-08-11T12:02:57.299Z,484.2
2022-08-11T12:04:40.978Z,488.2
2022-08-11T12:06:24.667Z,489.5
2022-08-11T12:08:08.363Z,490.2
2022-08-11T12:09:52.075Z,491.7
2022-08-11T12:11:35.773Z,491.6
2022-08-11T12:13:19.468Z,493.2
2022-08-11T12:15:03.187Z,496.3
2022-08-11T12:16:46.906Z,499.3
2022-08-11T12:18:30.583Z,503.4
2022-08-11T12:20:14.270Z,505.5
2022-08-11T12:21:57.976Z,506
2022-08-11T12:23:41.663Z,502.7
2022-08-11T12:25:25.381Z,503.5
2022-08-11T12:27:09.059Z,507.3
2022-08-11T12:28:52.773Z,509.5
2022-08-11T12:30:36.467Z,510.1
2022-08-11T12:32:20.177Z,509.1
2022-08-11T12:34:03.870Z,506.6
2022-08-11T12:35:47.588Z,505.9
2022-08-11T12:37:31.286Z,503.6
2022-08-11T12:39:14.980Z,504.3
2022-08-11T12:40:58.672Z,502.8
2022-08-11T12:42:42.372Z,504
2022-08-11T12:44:26.081Z,502.2
2022-08-11T12:46:09.787Z,502.3
2022-08-11T12:47:53.471Z,502.7
2022-08-11T12:49:37.214Z,503.8
2022-08-11T12:51:20.879Z,505.2
2022-08-11T12:53:04.594Z,505.4
2022-08-11T12:54:48.300Z,507.5
2022-08-11T12:56:31.992Z,508.1
2022-08-11T12:58:15.696Z,508.7
2022-08-11T12:59:59.415Z,509.3
2022-08-11T13:01:43.108Z,509.8
2022-08-11T13:03:26.817Z,509.8
2022-08-11T13:05:10.514Z,509.9
2022-08-11T13:06:54.222Z,511.4
2022-08-11T13:08:37.927Z,510.6
2022-08-11T13:10:21.627Z,510.4
2022-08-11T13:12:05.311Z,512.1
2022-08-11T13:13:49.029Z,513.6
2022-08-11T13:15:32.720Z,514
2022-08-11T13:17:16.422Z,512.4
2022-08-11T13:19:00.145Z,512.5
2022-08-11T13:20:43.836Z,518.2
2022-08-11T13:22:27.541Z,521.7
2022-08-11T13:24:11.242Z,524.4
2022-08-11T13:25:54.953Z,522.1
2022-08-11T13:27:38.651Z,523.7
2022-08-11T13:29:22.341Z,521.2
2022-08-11T13:31:06.052Z,523
2022-08-11T13:32:49.745Z,525.6
2022-08-11T13:34:33.473Z,531
2022-08-11T13:36:17.152Z,534.8
2022-08-11T13:38:00.863Z,538.7
2022-08-11T13:39:44.561Z,545.1
2022-08-11T13:41:28.270Z,549.4
2022-08-11T13:43:11.997Z,549.5
2022-08-11T13:44:55.675Z,549.4
2022-08-11T13:46:39.363Z,547.9
2022-08-11T13:48:23.076Z,547.3
2022-08-11T13:50:06.784Z,550.2
2022-08-11T13:51:50.495Z,550.8
2022-08-11T13:53:34.166Z,546.9
2022-08-11T13:55:17.885Z,546
2022-08-11T13:57:01.593Z,545
2022-08-11T13:58:45.299Z,546
2022-08-11T14:00:28.982Z,546.9
2022-08-11T14:02:12.706Z,546.4
2022-08-11T14:03:56.387Z,547.3
2022-08-11T14:05:40.098Z,546.9
2022-08-11T14:07:23.811Z,547
2022-08-11T14:09:07.504Z,546.4
2022-08-11T14:10:51.213Z,551.1
2022-08-11T14:12:34.894Z,551.5
2022-08-11T14:14:18.618Z,549
2022-08-11T14:16:02.318Z,550.2
2022-08-11T14:17:46.025Z,552.2
2022-08-11T14:19:29.727Z,553.7
2022-08-11T14:21:13.415Z,553.8
2022-08-11T14:22:57.137Z,554.2
2022-08-11T14:24:40.818Z,553.5
2022-08-11T14:26:24.559Z,554.9
2022-08-11T14:28:08.226Z,553
2022-08-11T14:29:51.949Z,551.2
2022-08-11T14:31:35.641Z,550.4
2022-08-11T14:33:19.345Z,551.6
2022-08-11T14:35:03.049Z,550.3
2022-08-11T14:36:46.733Z,544.6
2022-08-11T14:38:30.442Z,543.2
2022-08-11T14:40:14.157Z,541.6
2022-08-11T14:41:57.863Z,539.8
2022-08-11T14:43:41.559Z,541.4
2022-08-11T14:45:25.248Z,540.8
2022-08-11T14:47:08.956Z,536.9
2022-08-11T14:48:52.668Z,537.9
2022-08-11T14:50:36.387Z,536.3
2022-08-11T14:52:20.061Z,533.7
2022-08-11T14:54:03.793Z,532.2
2022-08-11T14:55:47.478Z,530.5
2022-08-11T14:57:31.180Z,527.4
2022-08-11T14:59:14.877Z,525.2
2022-08-11T15:00:58.583Z,521.8
2022-08-11T15:02:42.309Z,522.3
2022-08-11T15:04:25.985Z,523.8
2022-08-11T15:06:09.676Z,522.7
2022-08-11T15:07:53.378Z,526.2
2022-08-11T15:09:37.099Z,531.8
2022-08-11T15:11:20.787Z,533.7
2022-08-11T15:13:04.485Z,530.7
2022-08-11T15:14:48.200Z,522.6
2022-08-11T15:16:31.892Z,516.2
2022-08-11T15:18:15.607Z,511.3
2022-08-11T15:19:59.293Z,503
2022-08-11T15:21:42.991Z,491.8
2022-08-11T15:23:26.708Z,484.2
2022-08-11T15:25:10.398Z,475.5
2022-08-11T15:26:54.121Z,467.4
2022-08-11T15:28:37.790Z,460.9
2022-08-11T15:30:21.504Z,454.5
2022-08-11T15:32:05.219Z,452.5
2022-08-11T15:33:48.894Z,447
2022-08-11T15:35:32.595Z,440.9
2022-08-11T15:37:16.308Z,435.3
2022-08-11T15:38:59.996Z,432
2022-08-11T15:40:43.682Z,426.7
2022-08-11T15:42:27.391Z,423.8
2022-08-11T15:44:11.105Z,421.2
2022-08-11T15:45:54.802Z,419.8
2022-08-11T15:47:38.501Z,420.5
2022-08-11T15:49:22.207Z,421.5
2022-08-11T15:51:05.898Z,422.3
2022-08-11T15:52:49.597Z,420.9
2022-08-11T15:54:33.317Z,421.3
2022-08-11T15:56:17.006Z,420.7
2022-08-11T15:58:00.706Z,422.8
2022-08-11T15:59:44.403Z,429.2
2022-08-11T16:01:28.095Z,437.1
2022-08-11T16:03:11.811Z,443.8
2022-08-11T16:04:55.507Z,448.5
2022-08-11T16:06:39.217Z,457.3
2022-08-11T16:08:22.896Z,464.7
2022-08-11T16:10:06.598Z,476.1
2022-08-11T16:11:50.290Z,484.7
2022-08-11T16:13:33.998Z,485.3
2022-08-11T16:15:17.704Z,483.8
2022-08-11T16:17:01.407Z,481
2022-08-11T16:18:45.106Z,477.3
2022-08-11T16:20:28.815Z,473.9
2022-08-11T16:22:12.510Z,467.7
2022-08-11T16:25:39.903Z,460.8
2022-08-11T16:27:23.614Z,459.1
2022-08-11T16:29:07.311Z,455.9
2022-08-11T16:30:51.011Z,453.6
2022-08-11T16:32:34.698Z,451.1
2022-08-11T16:34:18.415Z,447.5
2022-08-11T16:36:02.108Z,446.1
2022-08-11T16:37:45.809Z,444.3
2022-08-11T16:39:29.509Z,439.8
2022-08-11T16:41:13.229Z,436
2022-08-11T16:42:56.927Z,433.8
2022-08-11T16:44:40.611Z,432.6
2022-08-11T16:46:24.321Z,431
2022-08-11T16:48:08.037Z,432.3
2022-08-11T16:49:51.723Z,433.6
2022-08-11T16:51:35.416Z,432.8
2022-08-11T16:53:19.134Z,439.5
2022-08-11T16:55:02.821Z,439
2022-08-11T16:56:46.518Z,437.1
2022-08-11T16:58:30.216Z,439.1
2022-08-11T17:00:13.927Z,442
2022-08-11T17:01:57.643Z,443.6
2022-08-11T17:03:41.322Z,447.1
2022-08-11T17:05:25.032Z,449.8
2022-08-11T17:07:08.722Z,449.1
2022-08-11T17:08:52.435Z,446.5
2022-08-11T17:10:36.133Z,444.1
2022-08-11T17:12:19.832Z,444.1
2022-08-11T17:14:03.538Z,442.9
2022-08-11T17:15:47.245Z,439.1
2022-08-11T17:17:30.932Z,437.7
2022-08-11T17:19:14.623Z,435.9
2022-08-11T17:20:58.333Z,432.6
2022-08-11T17:22:42.051Z,432.3
2022-08-11T17:24:25.740Z,434
2022-08-11T17:26:09.451Z,432.6
2022-08-11T17:27:53.155Z,430.8
2022-08-11T17:29:36.847Z,431.9
2022-08-11T17:31:20.557Z,432.8
2022-08-11T17:33:04.252Z,430
2022-08-11T17:34:47.958Z,429.5
2022-08-11T17:36:31.676Z,429.9
2022-08-11T17:38:15.362Z,427.5
2022-08-11T17:39:59.059Z,424.2
2022-08-11T17:41:42.763Z,422.7
2022-08-11T17:43:26.481Z,424.7
2022-08-11T17:45:10.172Z,425.2
2022-08-11T17:46:53.867Z,424.6
2022-08-11T17:48:37.576Z,424.2
2022-08-11T17:50:21.277Z,425.1
2022-08-11T17:52:04.966Z,423.4
2022-08-11T17:53:48.686Z,422.1
2022-08-11T17:55:32.382Z,422.3
2022-08-11T17:57:16.090Z,423.1
2022-08-11T17:58:59.794Z,424.7
2022-08-11T18:00:43.476Z,425
2022-08-11T18:02:27.193Z,424.3
2022-08-11T18:04:10.890Z,421.6
2022-08-11T18:05:54.590Z,421.2
2022-08-11T18:07:38.292Z,421.6
2022-08-11T18:09:22.033Z,421.3
2022-08-11T18:11:05.708Z,420.1
2022-08-11T18:12:49.406Z,418.1
2022-08-11T18:14:33.100Z,419.1
2022-08-11T18:16:16.802Z,422.5
2022-08-11T18:18:00.569Z,423.4
2022-08-11T18:19:44.215Z,421.1
2022-08-11T18:21:27.919Z,417.4
2022-08-11T18:23:11.612Z,415.4
2022-08-11T18:24:55.317Z,414.4
2022-08-11T18:26:39.033Z,415.4
2022-08-11T18:28:22.726Z,414.9
2022-08-11T18:30:06.430Z,416
2022-08-11T18:31:50.140Z,415.2
2022-08-11T18:33:33.845Z,416.9
2022-08-11T18:35:17.529Z,420.7
2022-08-11T18:37:01.234Z,421.4
2022-08-11T18:38:44.944Z,422.9
2022-08-11T18:40:28.657Z,424.7
2022-08-11T18:42:12.337Z,425.8
2022-08-11T18:43:56.047Z,425.8
2022-08-11T18:45:39.739Z,428.5
2022-08-11T18:47:23.455Z,430.4
2022-08-11T18:49:07.152Z,430.3
2022-08-11T18:50:50.840Z,429.7
2022-08-11T18:52:34.567Z,429.9
2022-08-11T18:54:18.252Z,430.9
2022-08-11T18:56:01.964Z,430
2022-08-11T18:57:45.658Z,430.9
2022-08-11T18:59:29.351Z,430.3
2022-08-11T19:01:13.060Z,430.8
2022-08-11T19:02:56.771Z,433.2
2022-08-11T19:04:40.471Z,433.2
2022-08-11T19:06:24.163Z,432.8
2022-08-11T19:08:07.873Z,432.4
2022-08-11T19:09:51.585Z,430.1
2022-08-11T19:11:35.288Z,431.9
2022-08-11T19:13:18.987Z,433.2
2022-08-11T19:15:02.682Z,431.9
2022-08-11T19:16:46.403Z,427.3
2022-08-11T19:18:30.102Z,424.9
2022-08-11T19:20:13.792Z,424.6
2022-08-11T19:21:57.503Z,426.4
2022-08-11T19:23:41.216Z,426.7
2022-08-11T19:25:24.907Z,427.2
2022-08-11T19:27:08.596Z,426.2
2022-08-11T19:28:52.309Z,428.1
2022-08-11T19:30:36.006Z,431.2
2022-08-11T19:32:19.723Z,430.9
2022-08-11T19:34:03.403Z,429.1
2022-08-11T19:35:47.124Z,428.1
2022-08-11T19:37:30.817Z,429
2022-08-11T19:39:14.511Z,431.4
2022-08-11T19:40:58.211Z,431.3
2022-08-11T19:42:41.938Z,435.2
2022-08-11T19:44:25.630Z,436.3
2022-08-11T19:46:09.321Z,439.9
2022-08-11T19:47:53.007Z,440.5
2022-08-11T19:49:36.719Z,440
2022-08-11T19:51:20.429Z,439.1
2022-08-11T19:53:04.119Z,439
2022-08-11T19:54:47.823Z,437
2022-08-11T19:56:31.528Z,436.4
2022-08-11T19:58:15.236Z,435.7
2022-08-11T19:59:58.923Z,434.2
2022-08-11T20:01:42.636Z,436.2
2022-08-11T20:03:26.331Z,433.9
2022-08-11T20:05:10.037Z,431.3
2022-08-11T20:06:53.713Z,432.2
2022-08-11T20:08:37.417Z,430.9
2022-08-11T20:10:21.126Z,433.8
2022-08-11T20:12:04.835Z,434.3
2022-08-11T20:13:48.534Z,430.8
2022-08-11T20:15:32.227Z,431.9
2022-08-11T20:17:15.929Z,431.6
2022-08-11T20:18:59.632Z,431.7
2022-08-11T20:20:43.332Z,428.6
2022-08-11T20:22:27.034Z,427.9
2022-08-11T20:24:10.718Z,426.3
2022-08-11T20:25:54.443Z,426.6
2022-08-11T20:27:38.147Z,426.5
2022-08-11T20:29:21.817Z,428.5
2022-08-11T20:31:05.572Z,428.6
2022-08-11T20:32:49.245Z,431.5
2022-08-11T20:34:32.936Z,432.7
2022-08-11T20:36:16.629Z,435.4
2022-08-11T20:38:00.340Z,430.8
2022-08-11T20:39:44.034Z,433.2
2022-08-11T20:41:27.739Z,438
2022-08-11T20:43:11.440Z,440.5
2022-08-11T20:44:55.150Z,439.7
2022-08-11T20:46:38.839Z,439.4
2022-08-11T20:48:22.548Z,442.3
2022-08-11T20:50:06.230Z,441.6
2022-08-11T20:51:49.945Z,440.3
2022-08-11T20:53:33.663Z,439.4
2022-08-11T20:55:17.351Z,438.3
2022-08-11T20:57:01.097Z,435.4
2022-08-11T20:58:44.779Z,432
2022-08-11T21:00:28.454Z,433.3
2022-08-11T21:02:12.217Z,434.2
2022-08-11T21:03:55.882Z,433.8
2022-08-11T21:05:39.582Z,431.8
2022-08-11T21:07:23.262Z,432.7
2022-08-11T21:09:06.982Z,434.9
2022-08-11T21:10:50.707Z,436.9
2022-08-11T21:12:34.380Z,439.4
2022-08-11T21:14:18.133Z,441.8
2022-08-11T21:16:01.807Z,444.3
2022-08-11T21:17:45.493Z,441.5
2022-08-11T21:19:29.194Z,437.5
2022-08-11T21:21:12.898Z,437.3
2022-08-11T21:22:56.610Z,437.4
2022-08-11T21:24:40.317Z,433.7
2022-08-11T21:26:24.000Z,430.1
2022-08-11T21:28:07.695Z,428.9
2022-08-11T21:29:51.410Z,428.1
2022-08-11T21:31:35.115Z,432.2
2022-08-11T21:33:18.806Z,433.3
2022-08-11T21:35:02.494Z,436.7
2022-08-11T21:36:46.211Z,441.6
2022-08-11T21:38:29.909Z,440.2
2022-08-11T21:40:13.612Z,439.9
2022-08-11T21:41:57.329Z,448.2
2022-08-11T21:43:41.029Z,451.2
2022-08-11T21:45:24.732Z,452.4
2022-08-11T21:47:08.434Z,456.7
2022-08-11T21:48:52.137Z,455.5
2022-08-11T21:50:35.850Z,457.8
2022-08-11T21:52:19.544Z,457.5
2022-08-11T21:54:03.246Z,456.4
2022-08-11T21:55:46.951Z,453.5
2022-08-11T21:57:30.649Z,449.3
2022-08-11T21:59:14.361Z,445
2022-08-11T22:00:58.064Z,446
2022-08-11T22:02:41.762Z,445.7
2022-08-11T22:04:25.481Z,442.4
2022-08-11T22:06:09.178Z,442.3
2022-08-11T22:07:52.890Z,444.2
2022-08-11T22:09:36.574Z,444.6
2022-08-11T22:11:20.273Z,444.1
2022-08-11T22:13:03.988Z,444.8
2022-08-11T22:14:47.701Z,443.8
2022-08-11T22:16:31.382Z,440.1
2022-08-11T22:18:15.104Z,440.2
2022-08-11T22:19:58.798Z,439.1
2022-08-11T22:21:42.512Z,440.8
2022-08-11T22:23:26.191Z,439.4
2022-08-11T22:25:09.902Z,435.6
2022-08-11T22:26:53.604Z,433.7
2022-08-11T22:28:37.305Z,431.3
2022-08-11T22:30:21.017Z,428.9
2022-08-11T22:32:04.710Z,431.3
2022-08-11T22:33:48.418Z,432.4
2022-08-11T22:35:32.146Z,434.7